Time,TemperatureF,DewpointF,PressureIn,WindDirection,WindDirectionDegrees,WindSpeedMPH,WindSpeedGustMPH,Humidity,HourlyPrecipIn,Conditions,Clouds,dailyrainin,SoftwareType,DateUTC
2013-06-11 00:06:00,54.9,29.7,29.97,North,0,0.0,4.0,38,0.00,,,0.00,Weather View 32 v70,2013-06-11 06:06:00,
2013-06-11 00:11:00,54.7,28.9,29.97,SW,222,3.0,4.0,37,0.00,,,0.00,Weather View 32 v70,2013-06-11 06:11:00,
2013-06-11 00:16:00,54.5,28.7,29.97,WSW,245,4.0,4.0,37,0.00,,,0.00,Weather View 32 v70,2013-06-11 06:16:00,
2013-06-11 00:21:00,54.5,29.4,29.97,WSW,240,4.0,5.0,38,0.00,,,0.00,Weather View 32 v70,2013-06-11 06:21:00,
2013-06-11 00:26:00,54.3,28.5,29.97,WSW,248,4.0,5.0,37,0.00,,,0.00,Weather View 32 v70,2013-06-11 06:26:00,
2013-06-11 00:31:00,54.3,29.2,29.97,SW,236,3.0,5.0,38,0.00,,,0.00,Weather View 32 v70,2013-06-11 06:31:00,
2013-06-11 00:36:00,54.3,29.2,29.97,WSW,250,3.0,5.0,38,0.00,,,0.00,Weather View 32 v70,2013-06-11 06:36:00,
2013-06-11 00:41:00,54.1,28.4,29.97,WSW,254,4.0,5.0,37,0.00,,,0.00,Weather View 32 v70,2013-06-11 06:41:00,
2013-06-11 00:47:00,54.0,28.9,29.97,WSW,250,4.0,5.0,38,0.00,,,0.00,Weather View 32 v70,2013-06-11 06:47:00,
2013-06-11 00:52:00,53.8,28.1,29.97,WSW,241,3.0,5.0,37,0.00,,,0.00,Weather View 32 v70,2013-06-11 06:52:00,
2013-06-11 00:57:00,53.8,28.7,29.97,WSW,251,5.0,5.0,38,0.00,,,0.00,Weather View 32 v70,2013-06-11 06:57:00,
2013-06-11 01:02:00,53.6,28.6,29.97,WSW,253,5.0,5.0,38,0.00,,,0.00,Weather View 32 v70,2013-06-11 07:02:00,
2013-06-11 01:07:00,53.2,28.2,29.97,WSW,250,4.0,5.0,38,0.00,,,0.00,Weather View 32 v70,2013-06-11 07:07:00,
2013-06-11 01:12:00,53.2,28.2,29.97,WSW,257,4.0,5.0,38,0.00,,,0.00,Weather View 32 v70,2013-06-11 07:12:00,
2013-06-11 01:17:00,53.1,28.1,29.97,WSW,258,5.0,5.0,38,0.00,,,0.00,Weather View 32 v70,2013-06-11 07:17:00,
2013-06-11 01:22:00,52.9,27.9,29.97,West,260,3.0,5.0,38,0.00,,,0.00,Weather View 32 v70,2013-06-11 07:22:00,
2013-06-11 01:27:00,52.9,27.9,29.97,WSW,258,5.0,5.0,38,0.00,,,0.00,Weather View 32 v70,2013-06-11 07:27:00,
2013-06-11 01:32:00,52.7,27.8,29.97,WSW,258,5.0,5.0,38,0.00,,,0.00,Weather View 32 v70,2013-06-11 07:32:00,
2013-06-11 01:37:00,52.7,27.8,29.97,WSW,257,4.0,5.0,38,0.00,,,0.00,Weather View 32 v70,2013-06-11 07:37:00,
2013-06-11 01:42:00,52.5,28.2,29.97,WSW,249,3.0,5.0,39,0.00,,,0.00,Weather View 32 v70,2013-06-11 07:42:00,
2013-06-11 01:47:00,52.5,27.6,29.97,WSW,252,3.0,5.0,38,0.00,,,0.00,Weather View 32 v70,2013-06-11 07:47:00,
2013-06-11 01:52:00,52.3,27.4,29.97,WSW,256,5.0,5.0,38,0.00,,,0.00,Weather View 32 v70,2013-06-11 07:52:00,
2013-06-11 01:57:00,52.3,27.4,29.97,West,261,4.0,5.0,38,0.00,,,0.00,Weather View 32 v70,2013-06-11 07:57:00,
2013-06-11 02:02:00,52.2,27.3,29.97,West,261,3.0,5.0,38,0.00,,,0.00,Weather View 32 v70,2013-06-11 08:02:00,
2013-06-11 02:07:00,52.2,27.9,29.97,WSW,253,4.0,5.0,39,0.00,,,0.00,Weather View 32 v70,2013-06-11 08:07:00,
2013-06-11 02:12:00,52.0,27.1,29.97,WSW,256,3.0,5.0,38,0.00,,,0.00,Weather View 32 v70,2013-06-11 08:12:00,
2013-06-11 02:17:00,52.0,27.1,29.97,West,259,3.0,5.0,38,0.00,,,0.00,Weather View 32 v70,2013-06-11 08:17:00,
2013-06-11 02:22:00,51.8,27.0,29.97,WSW,254,4.0,5.0,38,0.00,,,0.00,Weather View 32 v70,2013-06-11 08:22:00,
2013-06-11 02:36:00,51.4,26.6,29.97,WSW,251,4.0,5.0,38,0.00,,,0.00,Weather View 32 v70,2013-06-11 08:36:00,
2013-06-11 02:41:00,51.4,26.6,29.97,WSW,250,4.0,5.0,38,0.00,,,0.00,Weather View 32 v70,2013-06-11 08:41:00,
2013-06-11 02:47:00,51.1,26.3,29.97,SW,227,3.0,5.0,38,0.00,,,0.00,Weather View 32 v70,2013-06-11 08:47:00,
2013-06-11 02:52:00,50.9,26.1,29.97,WSW,246,4.0,5.0,38,0.00,,,0.00,Weather View 32 v70,2013-06-11 08:52:00,
2013-06-11 02:57:00,50.9,26.1,29.97,WSW,249,4.0,5.0,38,0.00,,,0.00,Weather View 32 v70,2013-06-11 08:57:00,
2013-06-11 03:02:00,50.7,26.0,29.97,WSW,255,4.0,5.0,38,0.00,,,0.00,Weather View 32 v70,2013-06-11 09:02:00,
2013-06-11 03:07:00,50.5,25.2,29.97,WSW,249,4.0,5.0,37,0.00,,,0.00,Weather View 32 v70,2013-06-11 09:07:00,
2013-06-11 03:12:00,50.5,25.8,29.97,WSW,252,4.0,5.0,38,0.00,,,0.00,Weather View 32 v70,2013-06-11 09:12:00,
2013-06-11 03:17:00,50.4,25.7,29.97,WSW,254,3.0,5.0,38,0.00,,,0.00,Weather View 32 v70,2013-06-11 09:17:00,
2013-06-11 03:22:00,50.4,25.7,29.97,WSW,256,4.0,5.0,38,0.00,,,0.00,Weather View 32 v70,2013-06-11 09:22:00,
2013-06-11 03:27:00,50.2,25.5,29.97,WSW,257,4.0,5.0,38,0.00,,,0.00,Weather View 32 v70,2013-06-11 09:27:00,
2013-06-11 03:32:00,50.2,25.5,29.97,West,259,4.0,5.0,38,0.00,,,0.00,Weather View 32 v70,2013-06-11 09:32:00,
2013-06-11 03:37:00,50.2,25.5,29.97,WSW,254,4.0,5.0,38,0.00,,,0.00,Weather View 32 v70,2013-06-11 09:37:00,
2013-06-11 03:42:00,50.0,25.3,29.97,WSW,256,4.0,5.0,38,0.00,,,0.00,Weather View 32 v70,2013-06-11 09:42:00,
2013-06-11 03:56:00,49.8,26.4,29.97,WSW,246,4.0,5.0,40,0.00,,,0.00,Weather View 32 v70,2013-06-11 09:56:00,
2013-06-11 04:01:00,49.5,26.1,29.97,WSW,256,4.0,5.0,40,0.00,,,0.00,Weather View 32 v70,2013-06-11 10:01:00,
2013-06-11 04:06:00,49.3,25.3,29.97,West,259,4.0,5.0,39,0.00,,,0.00,Weather View 32 v70,2013-06-11 10:06:00,
2013-06-11 04:11:00,49.3,25.3,29.97,WSW,258,4.0,5.0,39,0.00,,,0.00,Weather View 32 v70,2013-06-11 10:11:00,
2013-06-11 04:16:00,49.3,25.9,29.97,WSW,256,4.0,5.0,40,0.00,,,0.00,Weather View 32 v70,2013-06-11 10:16:00,
2013-06-11 04:21:00,49.3,25.3,29.97,WSW,258,5.0,5.0,39,0.00,,,0.00,Weather View 32 v70,2013-06-11 10:21:00,
2013-06-11 04:26:00,49.3,25.3,29.97,WSW,256,5.0,5.0,39,0.00,,,0.00,Weather View 32 v70,2013-06-11 10:26:00,
2013-06-11 04:32:00,49.1,25.2,29.97,WSW,257,4.0,5.0,39,0.00,,,0.00,Weather View 32 v70,2013-06-11 10:32:00,
2013-06-11 04:37:00,49.1,25.2,29.97,West,259,3.0,5.0,39,0.00,,,0.00,Weather View 32 v70,2013-06-11 10:37:00,
2013-06-11 04:42:00,49.1,24.5,29.97,WSW,258,4.0,5.0,38,0.00,,,0.00,Weather View 32 v70,2013-06-11 10:42:00,
2013-06-11 04:47:00,49.1,25.2,29.97,WSW,254,3.0,5.0,39,0.00,,,0.00,Weather View 32 v70,2013-06-11 10:47:00,
2013-06-11 04:52:00,48.9,25.0,29.97,West,260,3.0,5.0,39,0.00,,,0.00,Weather View 32 v70,2013-06-11 10:52:00,
2013-06-11 04:57:00,48.9,25.0,29.97,West,259,5.0,5.0,39,0.00,,,0.00,Weather View 32 v70,2013-06-11 10:57:00,
2013-06-11 05:02:00,48.7,24.8,29.97,WSW,250,4.0,5.0,39,0.00,,,0.00,Weather View 32 v70,2013-06-11 11:02:00,
2013-06-11 05:07:00,48.7,24.8,29.97,WSW,253,4.0,5.0,39,0.00,,,0.00,Weather View 32 v70,2013-06-11 11:07:00,
2013-06-11 05:12:00,48.6,24.7,29.97,WSW,254,4.0,5.0,39,0.00,,,0.00,Weather View 32 v70,2013-06-11 11:12:00,
2013-06-11 05:17:00,48.6,24.1,29.97,WSW,254,4.0,5.0,38,0.00,,,0.00,Weather View 32 v70,2013-06-11 11:17:00,
2013-06-11 05:22:00,48.6,24.7,29.97,North,0,0.0,5.0,39,0.00,,,0.00,Weather View 32 v70,2013-06-11 11:22:00,
2013-06-11 05:27:00,48.4,24.5,29.97,North,0,0.0,5.0,39,0.00,,,0.00,Weather View 32 v70,2013-06-11 11:27:00,
2013-06-11 05:32:00,48.4,24.5,29.97,North,0,0.0,5.0,39,0.00,,,0.00,Weather View 32 v70,2013-06-11 11:32:00,
2013-06-11 05:37:00,48.2,24.4,29.97,North,0,0.0,5.0,39,0.00,,,0.00,Weather View 32 v70,2013-06-11 11:37:00,
2013-06-11 05:42:00,48.2,24.4,29.97,North,0,0.0,5.0,39,0.00,,,0.00,Weather View 32 v70,2013-06-11 11:42:00,
2013-06-11 05:47:00,48.2,23.7,29.97,WSW,253,3.0,5.0,38,0.00,,,0.00,Weather View 32 v70,2013-06-11 11:47:00,
2013-06-11 05:52:00,48.4,24.5,29.97,WSW,253,4.0,5.0,39,0.00,,,0.00,Weather View 32 v70,2013-06-11 11:52:00,
2013-06-11 05:57:00,48.2,24.4,29.97,WSW,251,3.0,5.0,39,0.00,,,0.00,Weather View 32 v70,2013-06-11 11:57:00,
2013-06-11 06:02:00,48.2,24.4,29.97,WSW,255,3.0,5.0,39,0.00,,,0.00,Weather View 32 v70,2013-06-11 12:02:00,
2013-06-11 06:07:00,48.4,25.1,29.97,WSW,255,3.0,5.0,40,0.00,,,0.00,Weather View 32 v70,2013-06-11 12:07:00,
2013-06-11 06:12:00,48.4,25.7,29.97,WSW,256,4.0,5.0,41,0.00,,,0.00,Weather View 32 v70,2013-06-11 12:12:00,
2013-06-11 06:17:00,48.4,27.4,29.97,North,0,0.0,5.0,44,0.00,,,0.00,Weather View 32 v70,2013-06-11 12:17:00,
2013-06-11 06:22:00,48.4,28.5,29.97,North,0,0.0,5.0,46,0.00,,,0.00,Weather View 32 v70,2013-06-11 12:22:00,
2013-06-11 06:27:00,48.6,29.2,29.97,North,0,0.0,5.0,47,0.00,,,0.00,Weather View 32 v70,2013-06-11 12:27:00,
2013-06-11 06:32:00,48.7,30.4,29.97,North,0,0.0,5.0,49,0.00,,,0.00,Weather View 32 v70,2013-06-11 12:32:00,
2013-06-11 06:37:00,48.7,31.4,29.97,North,0,0.0,5.0,51,0.00,,,0.00,Weather View 32 v70,2013-06-11 12:37:00,
2013-06-11 06:42:00,48.9,32.0,29.97,North,0,0.0,5.0,52,0.00,,,0.00,Weather View 32 v70,2013-06-11 12:42:00,
2013-06-11 06:56:00,49.5,32.5,29.97,North,0,0.0,5.0,52,0.00,,,0.00,Weather View 32 v70,2013-06-11 12:56:00,
2013-06-11 07:01:00,49.8,32.9,29.97,North,0,0.0,5.0,52,0.00,,,0.00,Weather View 32 v70,2013-06-11 13:01:00,
2013-06-11 07:06:00,50.4,33.4,29.97,North,0,0.0,5.0,52,0.00,,,0.00,Weather View 32 v70,2013-06-11 13:06:00,
2013-06-11 07:11:00,50.9,33.4,29.97,North,0,0.0,4.0,51,0.00,,,0.00,Weather View 32 v70,2013-06-11 13:11:00,
2013-06-11 07:16:00,51.6,33.0,29.97,SW,217,0.0,0.0,49,0.00,,,0.00,Weather View 32 v70,2013-06-11 13:16:00,
2013-06-11 07:21:00,52.3,33.2,29.97,SW,228,0.0,0.0,48,0.00,,,0.00,Weather View 32 v70,2013-06-11 13:21:00,
2013-06-11 07:27:00,53.4,34.2,29.97,North,0,0.0,0.0,48,0.00,,,0.00,Weather View 32 v70,2013-06-11 13:27:00,
2013-06-11 07:32:00,54.7,33.7,29.97,SW,234,0.0,0.0,45,0.00,,,0.00,Weather View 32 v70,2013-06-11 13:32:00,
2013-06-11 07:37:00,55.9,33.1,29.97,North,0,0.0,0.0,42,0.00,,,0.00,Weather View 32 v70,2013-06-11 13:37:00,
2013-06-11 07:42:00,57.2,31.8,29.97,WSW,239,0.0,0.0,38,0.00,,,0.00,Weather View 32 v70,2013-06-11 13:42:00,
2013-06-11 07:47:00,58.3,31.4,29.97,WSW,239,0.0,0.0,36,0.00,,,0.00,Weather View 32 v70,2013-06-11 13:47:00,
2013-06-11 07:52:00,59.4,33.0,29.97,WSW,239,0.0,0.0,37,0.00,,,0.00,Weather View 32 v70,2013-06-11 13:52:00,
2013-06-11 07:57:00,59.9,32.1,29.97,WSW,239,0.0,0.0,35,0.00,,,0.00,Weather View 32 v70,2013-06-11 13:57:00,
2013-06-11 08:02:00,60.1,32.3,29.97,WSW,241,0.0,0.0,35,0.00,,,0.00,Weather View 32 v70,2013-06-11 14:02:00,
2013-06-11 08:07:00,60.4,31.9,29.97,WSW,241,0.0,0.0,34,0.00,,,0.00,Weather View 32 v70,2013-06-11 14:07:00,
2013-06-11 08:12:00,61.3,32.7,29.97,SW,235,0.0,0.0,34,0.00,,,0.00,Weather View 32 v70,2013-06-11 14:12:00,
2013-06-11 08:17:00,63.1,31.9,29.97,SW,231,0.0,0.0,31,0.00,,,0.00,Weather View 32 v70,2013-06-11 14:17:00,
2013-06-11 08:22:00,64.9,29.2,29.97,West,259,0.0,0.0,26,0.00,,,0.00,Weather View 32 v70,2013-06-11 14:22:00,
2013-06-11 08:27:00,66.4,30.4,29.97,SW,226,0.0,0.0,26,0.00,,,0.00,Weather View 32 v70,2013-06-11 14:27:00,
2013-06-11 08:32:00,68.2,30.9,29.97,SW,226,0.0,0.0,25,0.00,,,0.00,Weather View 32 v70,2013-06-11 14:32:00,
2013-06-11 08:37:00,69.1,28.5,29.97,NE,38,0.0,0.0,22,0.00,,,0.00,Weather View 32 v70,2013-06-11 14:37:00,
2013-06-11 08:42:00,70.9,30.0,29.97,SSE,157,0.0,6.0,22,0.00,,,0.00,Weather View 32 v70,2013-06-11 14:42:00,
2013-06-11 08:47:00,72.9,23.9,29.97,NW,314,0.0,6.0,16,0.00,,,0.00,Weather View 32 v70,2013-06-11 14:47:00,
2013-06-11 08:52:00,73.9,31.4,29.97,SE,126,0.0,6.0,21,0.00,,,0.00,Weather View 32 v70,2013-06-11 14:52:00,
2013-06-11 08:57:00,74.3,25.1,29.97,WNW,282,0.0,6.0,16,0.00,,,0.00,Weather View 32 v70,2013-06-11 14:57:00,
2013-06-11 09:02:00,75.4,28.8,29.97,WNW,282,0.0,6.0,18,0.00,,,0.00,Weather View 32 v70,2013-06-11 15:02:00,
2013-06-11 09:07:00,76.1,29.4,29.94,WNW,283,0.0,6.0,18,0.00,,,0.00,Weather View 32 v70,2013-06-11 15:07:00,
2013-06-11 09:12:00,77.2,30.3,29.94,WNW,283,0.0,6.0,18,0.00,,,0.00,Weather View 32 v70,2013-06-11 15:12:00,
2013-06-11 09:17:00,77.5,26.1,29.94,West,264,0.0,6.0,15,0.00,,,0.00,Weather View 32 v70,2013-06-11 15:17:00,
2013-06-11 09:22:00,78.3,26.7,29.94,SW,218,0.0,10.0,15,0.00,,,0.00,Weather View 32 v70,2013-06-11 15:22:00,
2013-06-11 09:27:00,78.8,27.1,29.94,ENE,63,4.0,10.0,15,0.00,,,0.00,Weather View 32 v70,2013-06-11 15:27:00,
2013-06-11 09:32:00,79.3,27.6,29.94,ENE,69,0.0,10.0,15,0.00,,,0.00,Weather View 32 v70,2013-06-11 15:32:00,
2013-06-11 09:37:00,80.8,27.0,29.94,SSE,162,3.0,10.0,14,0.00,,,0.00,Weather View 32 v70,2013-06-11 15:37:00,
2013-06-11 09:42:00,80.6,26.9,29.94,South,171,0.0,10.0,14,0.00,,,0.00,Weather View 32 v70,2013-06-11 15:42:00,
2013-06-11 09:47:00,81.3,27.4,29.94,West,281,3.0,10.0,14,0.00,,,0.00,Weather View 32 v70,2013-06-11 15:47:00,
2013-06-11 09:52:00,82.2,28.2,29.94,SW,215,4.0,10.0,14,0.00,,,0.00,Weather View 32 v70,2013-06-11 15:52:00,
2013-06-11 09:57:00,82.0,28.0,29.94,SW,229,5.0,10.0,14,0.00,,,0.00,Weather View 32 v70,2013-06-11 15:57:00,
2013-06-11 10:02:00,82.6,28.4,29.94,SW,220,3.0,10.0,14,0.00,,,0.00,Weather View 32 v70,2013-06-11 16:02:00,
2013-06-11 10:07:00,82.2,28.2,29.94,North,353,0.0,10.0,14,0.00,,,0.00,Weather View 32 v70,2013-06-11 16:07:00,
2013-06-11 10:12:00,80.6,26.9,29.94,SE,141,5.0,10.0,14,0.00,,,0.00,Weather View 32 v70,2013-06-11 16:12:00,
2013-06-11 10:17:00,80.1,28.1,29.94,ESE,123,6.0,10.0,15,0.00,,,0.00,Weather View 32 v70,2013-06-11 16:17:00,
2013-06-11 10:22:00,81.1,27.3,29.94,SSE,167,0.0,10.0,14,0.00,,,0.00,Weather View 32 v70,2013-06-11 16:22:00,
2013-06-11 10:27:00,81.1,27.3,29.94,East,95,4.0,10.0,14,0.00,,,0.00,Weather View 32 v70,2013-06-11 16:27:00,
2013-06-11 10:32:00,80.8,27.0,29.94,SSE,160,0.0,10.0,14,0.00,,,0.00,Weather View 32 v70,2013-06-11 16:32:00,
2013-06-11 10:37:00,80.4,28.4,29.94,SSE,150,4.0,10.0,15,0.00,,,0.00,Weather View 32 v70,2013-06-11 16:37:00,
2013-06-11 10:42:00,80.8,27.0,29.94,SSE,154,3.0,10.0,14,0.00,,,0.00,Weather View 32 v70,2013-06-11 16:42:00,
2013-06-11 10:47:00,80.4,28.4,29.94,NNE,15,3.0,10.0,15,0.00,,,0.00,Weather View 32 v70,2013-06-11 16:47:00,
2013-06-11 10:52:00,81.0,27.2,29.94,ESE,119,6.0,10.0,14,0.00,,,0.00,Weather View 32 v70,2013-06-11 16:52:00,
2013-06-11 10:57:00,81.1,27.3,29.94,ESE,108,0.0,9.0,14,0.00,,,0.00,Weather View 32 v70,2013-06-11 16:57:00,
2013-06-11 11:02:00,80.8,27.0,29.94,East,92,5.0,9.0,14,0.00,,,0.00,Weather View 32 v70,2013-06-11 17:02:00,
2013-06-11 11:07:00,81.9,27.9,29.94,NE,43,3.0,9.0,14,0.00,,,0.00,Weather View 32 v70,2013-06-11 17:07:00,
2013-06-11 11:12:00,82.9,28.7,29.94,SSE,167,0.0,9.0,14,0.00,,,0.00,Weather View 32 v70,2013-06-11 17:12:00,
2013-06-11 11:17:00,83.3,29.0,29.94,WSW,258,5.0,9.0,14,0.00,,,0.00,Weather View 32 v70,2013-06-11 17:17:00,
2013-06-11 11:22:00,81.9,27.9,29.94,SE,135,4.0,9.0,14,0.00,,,0.00,Weather View 32 v70,2013-06-11 17:22:00,
2013-06-11 11:27:00,81.7,27.7,29.94,SE,135,6.0,9.0,14,0.00,,,0.00,Weather View 32 v70,2013-06-11 17:27:00,
2013-06-11 11:32:00,82.4,28.3,29.94,SE,130,3.0,9.0,14,0.00,,,0.00,Weather View 32 v70,2013-06-11 17:32:00,
2013-06-11 11:37:00,83.3,29.0,29.94,SSE,155,3.0,9.0,14,0.00,,,0.00,Weather View 32 v70,2013-06-11 17:37:00,
2013-06-11 11:42:00,84.4,28.0,29.94,NNW,328,3.0,9.0,13,0.00,,,0.00,Weather View 32 v70,2013-06-11 17:42:00,
2013-06-11 11:47:00,84.4,28.0,29.94,SE,134,4.0,9.0,13,0.00,,,0.00,Weather View 32 v70,2013-06-11 17:47:00,
2013-06-11 11:52:00,84.9,28.5,29.94,SSW,198,3.0,9.0,13,0.00,,,0.00,Weather View 32 v70,2013-06-11 17:52:00,
2013-06-11 11:57:00,81.9,27.9,29.94,SSW,206,0.0,9.0,14,0.00,,,0.00,Weather View 32 v70,2013-06-11 17:57:00,
2013-06-11 12:02:00,82.4,28.3,29.94,NNE,32,0.0,8.0,14,0.00,,,0.00,Weather View 32 v70,2013-06-11 18:02:00,
2013-06-11 12:07:00,84.9,28.5,29.91,SSW,199,5.0,10.0,13,0.00,,,0.00,Weather View 32 v70,2013-06-11 18:07:00,
2013-06-11 12:12:00,85.3,28.7,29.91,ESE,109,3.0,10.0,13,0.00,,,0.00,Weather View 32 v70,2013-06-11 18:12:00,
2013-06-11 12:17:00,86.2,29.4,29.91,SE,145,6.0,11.0,13,0.00,,,0.00,Weather View 32 v70,2013-06-11 18:17:00,
2013-06-11 12:22:00,86.9,30.0,29.94,NNE,31,0.0,11.0,13,0.00,,,0.00,Weather View 32 v70,2013-06-11 18:22:00,
2013-06-11 12:27:00,86.7,29.9,29.94,WNW,282,4.0,11.0,13,0.00,,,0.00,Weather View 32 v70,2013-06-11 18:27:00,
2013-06-11 12:32:00,86.9,30.0,29.94,WSW,243,4.0,11.0,13,0.00,,,0.00,Weather View 32 v70,2013-06-11 18:32:00,
2013-06-11 12:37:00,85.6,29.0,29.91,SW,214,6.0,11.0,13,0.00,,,0.00,Weather View 32 v70,2013-06-11 18:37:00,
2013-06-11 12:42:00,86.0,29.3,29.91,ESE,122,6.0,11.0,13,0.00,,,0.00,Weather View 32 v70,2013-06-11 18:42:00,
2013-06-11 12:47:00,86.4,29.6,29.91,SE,139,3.0,11.0,13,0.00,,,0.00,Weather View 32 v70,2013-06-11 18:47:00,
2013-06-11 12:52:00,87.1,30.1,29.91,NE,37,0.0,11.0,13,0.00,,,0.00,Weather View 32 v70,2013-06-11 18:52:00,
2013-06-11 13:06:00,87.1,30.1,29.91,West,267,6.0,11.0,13,0.00,,,0.00,Weather View 32 v70,2013-06-11 19:06:00,
2013-06-11 13:11:00,86.4,29.6,29.91,SW,229,5.0,11.0,13,0.00,,,0.00,Weather View 32 v70,2013-06-11 19:11:00,
2013-06-11 13:17:00,86.2,29.4,29.91,ESE,114,3.0,11.0,13,0.00,,,0.00,Weather View 32 v70,2013-06-11 19:17:00,
2013-06-11 13:22:00,86.7,29.9,29.91,WSW,239,8.0,11.0,13,0.00,,,0.00,Weather View 32 v70,2013-06-11 19:22:00,
2013-06-11 13:27:00,87.1,30.1,29.91,West,270,3.0,11.0,13,0.00,,,0.00,Weather View 32 v70,2013-06-11 19:27:00,
2013-06-11 13:32:00,85.8,29.2,29.91,ENE,65,3.0,11.0,13,0.00,,,0.00,Weather View 32 v70,2013-06-11 19:32:00,
2013-06-11 13:37:00,87.4,30.4,29.91,SSE,162,2.0,11.0,13,0.00,,,0.00,Weather View 32 v70,2013-06-11 19:37:00,
2013-06-11 13:42:00,87.3,30.3,29.91,SSW,197,8.0,12.0,13,0.00,,,0.00,Weather View 32 v70,2013-06-11 19:42:00,
2013-06-11 13:47:00,87.3,30.3,29.91,North,4,5.0,12.0,13,0.00,,,0.00,Weather View 32 v70,2013-06-11 19:47:00,
2013-06-11 13:52:00,87.8,30.7,29.91,SW,229,6.0,12.0,13,0.00,,,0.00,Weather View 32 v70,2013-06-11 19:52:00,
2013-06-11 13:57:00,88.2,31.0,29.91,ESE,117,6.0,12.0,13,0.00,,,0.00,Weather View 32 v70,2013-06-11 19:57:00,
2013-06-11 14:11:00,86.5,29.7,29.91,SSW,210,6.0,12.0,13,0.00,,,0.00,Weather View 32 v70,2013-06-11 20:11:00,
2013-06-11 14:16:00,87.1,30.1,29.91,WSW,258,0.0,12.0,13,0.00,,,0.00,Weather View 32 v70,2013-06-11 20:16:00,
2013-06-11 14:22:00,86.9,30.0,29.91,SSW,202,10.0,12.0,13,0.00,,,0.00,Weather View 32 v70,2013-06-11 20:22:00,
2013-06-11 14:27:00,87.4,30.4,29.91,SSW,195,10.0,12.0,13,0.00,,,0.00,Weather View 32 v70,2013-06-11 20:27:00,
2013-06-11 14:32:00,88.2,31.0,29.91,SE,127,6.0,13.0,13,0.00,,,0.00,Weather View 32 v70,2013-06-11 20:32:00,
2013-06-11 14:37:00,88.2,31.0,29.91,South,191,3.0,13.0,13,0.00,,,0.00,Weather View 32 v70,2013-06-11 20:37:00,
2013-06-11 14:42:00,87.3,30.3,29.91,SSW,213,3.0,13.0,13,0.00,,,0.00,Weather View 32 v70,2013-06-11 20:42:00,
2013-06-11 14:47:00,86.0,29.3,29.91,SW,236,6.0,13.0,13,0.00,,,0.00,Weather View 32 v70,2013-06-11 20:47:00,
2013-06-11 14:52:00,86.5,29.7,29.91,WSW,237,0.0,15.0,13,0.00,,,0.00,Weather View 32 v70,2013-06-11 20:52:00,
2013-06-11 14:57:00,86.0,29.3,29.91,ESE,106,4.0,15.0,13,0.00,,,0.00,Weather View 32 v70,2013-06-11 20:57:00,
2013-06-11 15:02:00,86.7,29.9,29.91,WSW,248,4.0,15.0,13,0.00,,,0.00,Weather View 32 v70,2013-06-11 21:02:00,
2013-06-11 15:07:00,86.9,30.0,29.91,SE,130,4.0,15.0,13,0.00,,,0.00,Weather View 32 v70,2013-06-11 21:07:00,
2013-06-11 15:12:00,87.6,30.6,29.91,West,270,5.0,15.0,13,0.00,,,0.00,Weather View 32 v70,2013-06-11 21:12:00,
2013-06-11 15:17:00,87.4,30.4,29.91,NW,321,0.0,15.0,13,0.00,,,0.00,Weather View 32 v70,2013-06-11 21:17:00,
2013-06-11 15:22:00,87.4,30.4,29.91,WSW,250,8.0,15.0,13,0.00,,,0.00,Weather View 32 v70,2013-06-11 21:22:00,
2013-06-11 15:27:00,86.2,29.4,29.91,SE,144,5.0,15.0,13,0.00,,,0.00,Weather View 32 v70,2013-06-11 21:27:00,
2013-06-11 15:32:00,85.5,28.9,29.91,SW,223,4.0,15.0,13,0.00,,,0.00,Weather View 32 v70,2013-06-11 21:32:00,
2013-06-11 15:37:00,85.6,29.0,29.91,SSE,160,6.0,15.0,13,0.00,,,0.00,Weather View 32 v70,2013-06-11 21:37:00,
2013-06-11 15:42:00,86.5,29.7,29.91,SSW,209,5.0,15.0,13,0.00,,,0.00,Weather View 32 v70,2013-06-11 21:42:00,
2013-06-11 15:47:00,86.7,29.9,29.91,East,86,0.0,15.0,13,0.00,,,0.00,Weather View 32 v70,2013-06-11 21:47:00,
2013-06-11 15:52:00,86.0,29.3,29.91,North,357,5.0,13.0,13,0.00,,,0.00,Weather View 32 v70,2013-06-11 21:52:00,
2013-06-11 15:57:00,86.0,29.3,29.91,South,174,0.0,13.0,13,0.00,,,0.00,Weather View 32 v70,2013-06-11 21:57:00,
2013-06-11 16:02:00,85.1,28.6,29.91,SW,219,9.0,13.0,13,0.00,,,0.00,Weather View 32 v70,2013-06-11 22:02:00,
2013-06-11 16:07:00,84.7,28.3,29.91,South,185,2.0,13.0,13,0.00,,,0.00,Weather View 32 v70,2013-06-11 22:07:00,
2013-06-11 16:12:00,84.4,28.0,29.91,West,260,9.0,13.0,13,0.00,,,0.00,Weather View 32 v70,2013-06-11 22:12:00,
2013-06-11 16:17:00,84.0,29.6,29.91,SSW,205,3.0,13.0,14,0.00,,,0.00,Weather View 32 v70,2013-06-11 22:17:00,
2013-06-11 16:22:00,83.5,29.1,29.91,WSW,252,4.0,13.0,14,0.00,,,0.00,Weather View 32 v70,2013-06-11 22:22:00,
2013-06-11 16:27:00,82.4,28.3,29.91,South,191,0.0,13.0,14,0.00,,,0.00,Weather View 32 v70,2013-06-11 22:27:00,
2013-06-11 16:32:00,82.2,28.2,29.91,SW,219,3.0,13.0,14,0.00,,,0.00,Weather View 32 v70,2013-06-11 22:32:00,
2013-06-11 16:37:00,81.7,27.7,29.91,WSW,242,0.0,13.0,14,0.00,,,0.00,Weather View 32 v70,2013-06-11 22:37:00,
2013-06-11 16:42:00,81.9,27.9,29.91,SSE,166,5.0,13.0,14,0.00,,,0.00,Weather View 32 v70,2013-06-11 22:42:00,
2013-06-11 16:47:00,81.3,27.4,29.91,NE,47,6.0,13.0,14,0.00,,,0.00,Weather View 32 v70,2013-06-11 22:47:00,
2013-06-11 16:52:00,80.6,26.9,29.91,South,169,4.0,13.0,14,0.00,,,0.00,Weather View 32 v70,2013-06-11 22:52:00,
2013-06-11 16:57:00,80.2,28.3,29.91,South,179,0.0,13.0,15,0.00,,,0.00,Weather View 32 v70,2013-06-11 22:57:00,
2013-06-11 17:02:00,80.1,28.1,29.91,SSW,208,3.0,13.0,15,0.00,,,0.00,Weather View 32 v70,2013-06-11 23:02:00,
2013-06-11 17:07:00,80.1,28.1,29.91,SW,236,8.0,13.0,15,0.00,,,0.00,Weather View 32 v70,2013-06-11 23:07:00,
2013-06-11 17:12:00,80.2,28.3,29.91,SSW,205,3.0,11.0,15,0.00,,,0.00,Weather View 32 v70,2013-06-11 23:12:00,
2013-06-11 17:17:00,79.9,28.0,29.91,SSE,148,0.0,11.0,15,0.00,,,0.00,Weather View 32 v70,2013-06-11 23:17:00,
2013-06-11 17:22:00,79.9,28.0,29.91,SSW,211,2.0,11.0,15,0.00,,,0.00,Weather View 32 v70,2013-06-11 23:22:00,
2013-06-11 17:27:00,79.9,28.0,29.91,South,185,2.0,11.0,15,0.00,,,0.00,Weather View 32 v70,2013-06-11 23:27:00,
2013-06-11 17:32:00,79.3,27.6,29.91,SW,226,0.0,11.0,15,0.00,,,0.00,Weather View 32 v70,2013-06-11 23:32:00,
2013-06-11 17:37:00,79.0,27.3,29.91,SW,222,4.0,11.0,15,0.00,,,0.00,Weather View 32 v70,2013-06-11 23:37:00,
2013-06-11 17:42:00,79.0,27.3,29.91,South,173,6.0,10.0,15,0.00,,,0.00,Weather View 32 v70,2013-06-11 23:42:00,
2013-06-11 17:47:00,78.6,27.0,29.91,WSW,249,3.0,10.0,15,0.00,,,0.00,Weather View 32 v70,2013-06-11 23:47:00,
2013-06-11 17:52:00,78.1,26.6,29.91,North,349,3.0,10.0,15,0.00,,,0.00,Weather View 32 v70,2013-06-11 23:52:00,
2013-06-11 17:57:00,77.7,26.3,29.91,WNW,302,3.0,10.0,15,0.00,,,0.00,Weather View 32 v70,2013-06-11 23:57:00,
2013-06-11 18:02:00,77.4,26.0,29.91,SSE,156,0.0,10.0,15,0.00,,,0.00,Weather View 32 v70,2013-06-12 00:02:00,
2013-06-11 18:07:00,77.0,25.7,29.91,SSE,157,5.0,10.0,15,0.00,,,0.00,Weather View 32 v70,2013-06-12 00:07:00,
2013-06-11 18:12:00,76.5,25.3,29.91,SE,140,0.0,10.0,15,0.00,,,0.00,Weather View 32 v70,2013-06-12 00:12:00,
2013-06-11 18:17:00,75.9,24.8,29.91,ESE,117,8.0,10.0,15,0.00,,,0.00,Weather View 32 v70,2013-06-12 00:17:00,
2013-06-11 18:22:00,75.4,24.4,29.91,NNW,328,0.0,10.0,15,0.00,,,0.00,Weather View 32 v70,2013-06-12 00:22:00,
2013-06-11 18:27:00,75.0,25.7,29.91,North,0,0.0,10.0,16,0.00,,,0.00,Weather View 32 v70,2013-06-12 00:27:00,
2013-06-11 18:32:00,74.5,25.2,29.91,East,87,7.0,10.0,16,0.00,,,0.00,Weather View 32 v70,2013-06-12 00:32:00,
2013-06-11 18:37:00,74.7,25.4,29.94,NE,54,8.0,8.0,16,0.00,,,0.00,Weather View 32 v70,2013-06-12 00:37:00,
2013-06-11 18:42:00,74.1,25.0,29.94,NW,317,0.0,8.0,16,0.00,,,0.00,Weather View 32 v70,2013-06-12 00:42:00,
2013-06-11 18:47:00,73.6,24.5,29.94,SW,233,3.0,8.0,16,0.00,,,0.00,Weather View 32 v70,2013-06-12 00:47:00,
2013-06-11 18:52:00,73.0,24.1,29.94,WSW,250,5.0,8.0,16,0.00,,,0.00,Weather View 32 v70,2013-06-12 00:52:00,
2013-06-11 18:57:00,72.9,23.9,29.94,ESE,104,4.0,8.0,16,0.00,,,0.00,Weather View 32 v70,2013-06-12 00:57:00,
2013-06-11 19:02:00,72.5,23.7,29.94,North,0,0.0,8.0,16,0.00,,,0.00,Weather View 32 v70,2013-06-12 01:02:00,
2013-06-11 19:07:00,72.1,23.4,29.94,NE,49,0.0,8.0,16,0.00,,,0.00,Weather View 32 v70,2013-06-12 01:07:00,
2013-06-11 19:12:00,72.0,23.2,29.94,West,281,0.0,8.0,16,0.00,,,0.00,Weather View 32 v70,2013-06-12 01:12:00,
2013-06-11 19:17:00,72.1,23.4,29.94,SSW,195,5.0,8.0,16,0.00,,,0.00,Weather View 32 v70,2013-06-12 01:17:00,
2013-06-11 19:22:00,72.0,23.2,29.94,SW,234,4.0,8.0,16,0.00,,,0.00,Weather View 32 v70,2013-06-12 01:22:00,
2013-06-11 19:27:00,71.6,22.9,29.94,SSW,208,0.0,8.0,16,0.00,,,0.00,Weather View 32 v70,2013-06-12 01:27:00,
2013-06-11 19:32:00,70.7,23.7,29.94,SW,233,7.0,8.0,17,0.00,,,0.00,Weather View 32 v70,2013-06-12 01:32:00,
2013-06-11 19:37:00,70.0,18.5,29.94,SE,129,0.0,8.0,14,0.00,,,0.00,Weather View 32 v70,2013-06-12 01:37:00,
2013-06-11 19:42:00,68.9,19.2,29.94,SW,217,0.0,7.0,15,0.00,,,0.00,Weather View 32 v70,2013-06-12 01:42:00,
2013-06-11 19:47:00,69.3,19.5,29.94,South,179,6.0,7.0,15,0.00,,,0.00,Weather View 32 v70,2013-06-12 01:47:00,
2013-06-11 19:52:00,70.0,18.5,29.94,SW,224,3.0,7.0,14,0.00,,,0.00,Weather View 32 v70,2013-06-12 01:52:00,
2013-06-11 19:57:00,69.4,22.6,29.94,North,0,0.0,7.0,17,0.00,,,0.00,Weather View 32 v70,2013-06-12 01:57:00,
2013-06-11 20:02:00,69.3,19.5,29.94,WNW,284,5.0,8.0,15,0.00,,,0.00,Weather View 32 v70,2013-06-12 02:02:00,
2013-06-11 20:07:00,69.1,19.4,29.94,West,268,0.0,8.0,15,0.00,,,0.00,Weather View 32 v70,2013-06-12 02:07:00,
2013-06-11 20:12:00,68.9,22.2,29.94,SSW,193,0.0,8.0,17,0.00,,,0.00,Weather View 32 v70,2013-06-12 02:12:00,
2013-06-11 20:17:00,68.9,19.2,29.94,SW,232,0.0,8.0,15,0.00,,,0.00,Weather View 32 v70,2013-06-12 02:17:00,
2013-06-11 20:22:00,68.0,18.5,29.97,North,0,0.0,8.0,15,0.00,,,0.00,Weather View 32 v70,2013-06-12 02:22:00,
2013-06-11 20:27:00,66.9,17.7,29.97,North,0,0.0,8.0,15,0.00,,,0.00,Weather View 32 v70,2013-06-12 02:27:00,
2013-06-11 20:32:00,66.9,17.7,29.97,North,0,0.0,8.0,15,0.00,,,0.00,Weather View 32 v70,2013-06-12 02:32:00,
2013-06-11 20:37:00,66.4,17.2,29.97,North,0,0.0,8.0,15,0.00,,,0.00,Weather View 32 v70,2013-06-12 02:37:00,
2013-06-11 20:42:00,65.5,16.5,29.97,North,0,0.0,8.0,15,0.00,,,0.00,Weather View 32 v70,2013-06-12 02:42:00,
2013-06-11 20:47:00,65.5,16.5,29.97,North,0,0.0,8.0,15,0.00,,,0.00,Weather View 32 v70,2013-06-12 02:47:00,
2013-06-11 20:52:00,64.2,17.0,29.97,North,0,0.0,8.0,16,0.00,,,0.00,Weather View 32 v70,2013-06-12 02:52:00,
2013-06-11 20:57:00,64.2,17.0,29.97,North,0,0.0,8.0,16,0.00,,,0.00,Weather View 32 v70,2013-06-12 02:57:00,
2013-06-11 21:02:00,64.8,20.2,29.97,North,0,0.0,6.0,18,0.00,,,0.00,Weather View 32 v70,2013-06-12 03:02:00,
2013-06-11 21:07:00,63.3,19.0,29.97,North,0,0.0,6.0,18,0.00,,,0.00,Weather View 32 v70,2013-06-12 03:07:00,
2013-06-11 21:12:00,63.1,18.9,29.97,North,0,0.0,4.0,18,0.00,,,0.00,Weather View 32 v70,2013-06-12 03:12:00,
2013-06-11 21:17:00,62.2,19.4,29.97,North,0,0.0,2.0,19,0.00,,,0.00,Weather View 32 v70,2013-06-12 03:17:00,
2013-06-11 21:22:00,61.9,19.1,30.00,North,0,0.0,0.0,19,0.00,,,0.00,Weather View 32 v70,2013-06-12 03:22:00,
2013-06-11 21:27:00,61.5,18.8,30.00,North,0,0.0,0.0,19,0.00,,,0.00,Weather View 32 v70,2013-06-12 03:27:00,
2013-06-11 21:32:00,61.3,18.6,30.00,North,0,0.0,0.0,19,0.00,,,0.00,Weather View 32 v70,2013-06-12 03:32:00,
2013-06-11 21:37:00,61.2,18.5,30.00,North,0,0.0,0.0,19,0.00,,,0.00,Weather View 32 v70,2013-06-12 03:37:00,
2013-06-11 21:42:00,62.8,18.6,30.00,North,0,0.0,0.0,18,0.00,,,0.00,Weather View 32 v70,2013-06-12 03:42:00,
2013-06-11 21:47:00,63.7,19.3,30.00,North,0,0.0,0.0,18,0.00,,,0.00,Weather View 32 v70,2013-06-12 03:47:00,
2013-06-11 21:52:00,63.1,18.9,30.00,North,0,0.0,0.0,18,0.00,,,0.00,Weather View 32 v70,2013-06-12 03:52:00,
2013-06-11 21:57:00,62.8,18.6,30.00,North,0,0.0,0.0,18,0.00,,,0.00,Weather View 32 v70,2013-06-12 03:57:00,
2013-06-11 22:01:00,62.2,19.4,30.00,North,0,0.0,0.0,19,0.00,,,0.00,Weather View 32 v70,2013-06-12 04:01:00,
2013-06-11 22:02:00,62.2,15.4,30.00,North,0,0.0,0.0,16,0.00,,,0.00,Weather View 32 v70,2013-06-12 04:02:00,
2013-06-11 22:07:00,62.8,18.6,30.00,North,0,0.0,0.0,18,0.00,,,0.00,Weather View 32 v70,2013-06-12 04:07:00,
2013-06-11 22:12:00,63.5,19.1,30.00,North,0,0.0,0.0,18,0.00,,,0.00,Weather View 32 v70,2013-06-12 04:12:00,
2013-06-11 22:17:00,64.6,20.0,30.00,South,183,3.0,5.0,18,0.00,,,0.00,Weather View 32 v70,2013-06-12 04:17:00,
2013-06-11 22:22:00,64.8,20.2,30.00,North,0,0.0,5.0,18,0.00,,,0.00,Weather View 32 v70,2013-06-12 04:22:00,
2013-06-11 22:27:00,65.7,16.7,30.00,North,0,0.0,5.0,15,0.00,,,0.00,Weather View 32 v70,2013-06-12 04:27:00,
2013-06-11 22:32:00,66.2,17.1,30.00,North,0,0.0,5.0,15,0.00,,,0.00,Weather View 32 v70,2013-06-12 04:32:00,
2013-06-11 22:37:00,65.8,16.8,30.00,North,0,0.0,5.0,15,0.00,,,0.00,Weather View 32 v70,2013-06-12 04:37:00,
2013-06-11 22:42:00,65.1,16.2,30.00,North,0,0.0,5.0,15,0.00,,,0.00,Weather View 32 v70,2013-06-12 04:42:00,
2013-06-11 22:47:00,64.2,17.0,30.00,North,0,0.0,5.0,16,0.00,,,0.00,Weather View 32 v70,2013-06-12 04:47:00,
2013-06-11 22:52:00,64.9,16.1,30.00,SSW,212,15.0,15.0,15,0.00,,,0.00,Weather View 32 v70,2013-06-12 04:52:00,
2013-06-11 22:57:00,65.3,16.4,30.00,SSW,193,2.0,15.0,15,0.00,,,0.00,Weather View 32 v70,2013-06-12 04:57:00,
2013-06-11 23:02:00,64.8,15.9,30.00,North,0,0.0,15.0,15,0.00,,,0.00,Weather View 32 v70,2013-06-12 05:02:00,
2013-06-11 23:07:00,64.4,15.7,30.00,North,0,0.0,15.0,15,0.00,,,0.00,Weather View 32 v70,2013-06-12 05:07:00,
2013-06-11 23:12:00,64.4,15.7,30.00,North,0,0.0,15.0,15,0.00,,,0.00,Weather View 32 v70,2013-06-12 05:12:00,
2013-06-11 23:17:00,64.6,15.8,30.00,North,0,0.0,15.0,15,0.00,,,0.00,Weather View 32 v70,2013-06-12 05:17:00,
2013-06-11 23:22:00,64.8,15.9,30.00,North,0,0.0,15.0,15,0.00,,,0.00,Weather View 32 v70,2013-06-12 05:22:00,
2013-06-11 23:27:00,64.8,15.9,30.00,North,0,0.0,15.0,15,0.00,,,0.00,Weather View 32 v70,2013-06-12 05:27:00,
2013-06-11 23:32:00,64.8,15.9,30.00,North,0,0.0,15.0,15,0.00,,,0.00,Weather View 32 v70,2013-06-12 05:32:00,
2013-06-11 23:37:00,63.7,16.6,30.00,North,0,0.0,15.0,16,0.00,,,0.00,Weather View 32 v70,2013-06-12 05:37:00,
2013-06-11 23:42:00,63.0,16.0,30.00,North,0,0.0,15.0,16,0.00,,,0.00,Weather View 32 v70,2013-06-12 05:42:00,
2013-06-11 23:47:00,62.6,15.7,30.00,North,0,0.0,15.0,16,0.00,,,0.00,Weather View 32 v70,2013-06-12 05:47:00,
2013-06-11 23:52:00,62.1,15.3,30.00,North,0,0.0,15.0,16,0.00,,,0.00,Weather View 32 v70,2013-06-12 05:52:00,
2013-06-11 23:57:00,62.1,15.3,30.00,North,0,0.0,2.0,16,0.00,,,0.00,Weather View 32 v70,2013-06-12 05:57:00,